Time;durP1;ratioP1;P1;durP2;ratioP2;P2;SDS_P1;SDS_P2;PMS_P1;PMS_P2;Temp;Humidity;BMP_temperature;BMP_pressure;BME280_temperature;BME280_humidity;BME280_pressure;Samples;Min_cycle;Max_cycle;Signal;HPM_P1;HPM_P2
2021/05/08 00:00:33;;;;;;;0.00;0.00;;;14.80;67.40;;;;;;4207717;28;20055;-46
2021/05/08 00:02:54;;;;;;;0.00;0.00;;;14.80;67.50;;;;;;4194926;28;20475;-46
2021/05/08 00:05:16;;;;;;;0.00;0.00;;;14.80;67.60;;;;;;4190173;28;20052;-44
2021/05/08 00:07:37;;;;;;;0.00;0.00;;;14.80;67.60;;;;;;4191166;28;20048;-50
2021/05/08 00:09:59;;;;;;;0.38;0.20;;;14.80;67.70;;;;;;4190901;28;20059;-50
2021/05/08 00:12:19;;;;;;;1.23;0.52;;;14.80;67.80;;;;;;4196085;28;20056;-50
2021/05/08 00:14:40;;;;;;;0.00;0.00;;;14.70;67.80;;;;;;4207538;28;20486;-47
2021/05/08 00:17:02;;;;;;;0.70;0.20;;;14.70;67.70;;;;;;4201512;28;20040;-46
2021/05/08 00:19:23;;;;;;;0.30;0.30;;;14.70;67.80;;;;;;4190834;28;20052;-45
2021/05/08 00:21:44;;;;;;;0.00;0.00;;;14.70;67.90;;;;;;4195802;28;20154;-43
2021/05/08 00:24:06;;;;;;;0.00;0.00;;;14.70;68.80;;;;;;4206199;28;20132;-44
2021/05/08 00:26:28;;;;;;;0.00;0.00;;;14.70;67.90;;;;;;4191091;28;20063;-44
2021/05/08 00:28:51;;;;;;;0.10;0.10;;;14.70;68.10;;;;;;4190824;28;25070;-47
2021/05/08 00:31:12;;;;;;;0.00;0.00;;;14.70;68.10;;;;;;4190664;28;20053;-47
2021/05/08 00:33:33;;;;;;;0.00;0.00;;;14.70;68.10;;;;;;4179910;28;20135;-45
2021/05/08 00:35:54;;;;;;;0.00;0.00;;;14.70;68.00;;;;;;4189345;28;20498;-45
2021/05/08 00:38:15;;;;;;;0.20;0.20;;;14.70;68.00;;;;;;4174393;28;20221;-46
2021/05/08 00:40:36;;;;;;;0.00;0.00;;;14.70;68.10;;;;;;4173184;28;20055;-45
2021/05/08 00:42:58;;;;;;;;;;;14.60;68.10;;;;;;4158159;28;20045;-45
2021/05/08 00:45:19;;;;;;;;;;;14.60;68.20;;;;;;4171702;28;19924;-46
2021/05/08 00:47:43;;;;;;;0.00;0.00;;;14.60;68.30;;;;;;4200608;28;20375;-45
2021/05/08 00:50:04;;;;;;;0.00;0.00;;;14.60;68.20;;;;;;4190704;28;20053;-45
2021/05/08 00:52:26;;;;;;;0.00;0.00;;;14.60;68.20;;;;;;4189471;28;20483;-47
2021/05/08 00:54:48;;;;;;;0.03;0.03;;;14.60;68.30;;;;;;4204598;28;20059;-46
2021/05/08 00:57:09;;;;;;;0.00;0.00;;;14.60;68.20;;;;;;4199394;28;20048;-45
2021/05/08 00:59:31;;;;;;;0.00;0.00;;;14.60;68.30;;;;;;4190617;28;20051;-46
2021/05/08 01:01:52;;;;;;;0.00;0.00;;;14.60;68.40;;;;;;4189049;28;20407;-45
2021/05/08 01:04:14;;;;;;;0.20;0.20;;;14.60;69.30;;;;;;4196130;28;20131;-48
2021/05/08 01:06:35;;;;;;;0.08;0.08;;;14.60;68.40;;;;;;4207124;28;20066;-47
2021/05/08 01:08:58;;;;;;;0.00;0.00;;;14.60;68.40;;;;;;4193724;28;20037;-46
2021/05/08 01:11:19;;;;;;;0.00;0.00;;;14.60;68.40;;;;;;4193451;28;20076;-45
2021/05/08 01:13:40;;;;;;;0.00;0.00;;;14.60;68.40;;;;;;4193649;28;20044;-45
2021/05/08 01:16:02;;;;;;;;;;;14.50;69.30;;;;;;4193861;28;20118;-48
2021/05/08 01:18:24;;;;;;;0.00;0.00;;;14.50;68.60;;;;;;4176450;28;20299;-49
2021/05/08 01:20:46;;;;;;;1.90;0.38;;;14.50;68.60;;;;;;4175567;28;20044;-48
2021/05/08 01:23:08;;;;;;;0.38;0.38;;;14.50;68.50;;;;;;4176876;28;20037;-48
2021/05/08 01:25:30;;;;;;;0.00;0.00;;;14.50;68.60;;;;;;4176833;28;20135;-46
2021/05/08 01:27:55;;;;;;;0.30;0.30;;;14.50;68.60;;;;;;4205789;28;20047;-47
2021/05/08 01:30:19;;;;;;;0.10;0.10;;;14.50;68.60;;;;;;4209815;28;20410;-48
2021/05/08 01:32:40;;;;;;;0.00;0.00;;;14.50;68.60;;;;;;4209637;28;20051;-48
2021/05/08 01:35:01;;;;;;;0.00;0.00;;;14.50;68.70;;;;;;4210014;28;20052;-49
2021/05/08 01:37:22;;;;;;;0.00;0.00;;;14.50;68.70;;;;;;4198858;28;20044;-45
2021/05/08 01:39:44;;;;;;;;;;;14.50;68.70;;;;;;4193760;28;20469;-45
2021/05/08 01:42:06;;;;;;;0.17;0.17;;;14.50;68.80;;;;;;4191736;28;20298;-46
2021/05/08 01:44:28;;;;;;;0.00;0.00;;;14.50;68.70;;;;;;4204700;28;20055;-47
2021/05/08 01:46:49;;;;;;;0.00;0.00;;;14.50;68.80;;;;;;4185106;28;20513;-48
2021/05/08 01:49:10;;;;;;;0.08;0.08;;;14.40;68.80;;;;;;4206586;28;20048;-47
2021/05/08 01:51:31;;;;;;;0.00;0.00;;;14.40;68.70;;;;;;4209862;28;20137;-49
2021/05/08 01:53:52;;;;;;;0.00;0.00;;;14.40;68.80;;;;;;4210066;28;20060;-48
2021/05/08 01:56:15;;;;;;;0.00;0.00;;;14.40;68.80;;;;;;4194333;28;20098;-50
2021/05/08 01:58:36;;;;;;;;;;;14.50;68.80;;;;;;4193256;28;20478;-48
2021/05/08 02:00:58;;;;;;;0.10;0.10;;;14.40;69.40;;;;;;4193181;28;19930;-47
2021/05/08 02:03:24;;;;;;;0.00;0.00;;;14.40;68.80;;;;;;4182298;28;20135;-45
2021/05/08 02:05:47;;;;;;;0.90;0.90;;;14.40;68.80;;;;;;4193053;28;20384;-49
2021/05/08 02:08:34;;;;;;;0.00;0.00;;;14.40;69.00;;;;;;4176551;28;20517;-50
2021/05/08 02:11:00;;;;;;;0.20;0.20;;;14.40;68.80;;;;;;4203440;28;20056;-49
2021/05/08 02:13:22;;;;;;;0.03;0.03;;;14.40;68.90;;;;;;4207950;28;20422;-49
2021/05/08 02:15:43;;;;;;;0.00;0.00;;;14.40;68.90;;;;;;4209069;28;20050;-47
2021/05/08 02:18:06;;;;;;;0.00;0.00;;;14.40;68.90;;;;;;4175638;28;20045;-46
2021/05/08 02:20:29;;;;;;;0.20;0.20;;;14.40;69.00;;;;;;4190363;28;20474;-45
2021/05/08 02:22:51;;;;;;;0.10;0.10;;;14.40;69.00;;;;;;4192793;28;20063;-48
2021/05/08 02:25:13;;;;;;;;;;;14.30;69.00;;;;;;4191617;28;20044;-45
2021/05/08 02:27:34;;;;;;;0.00;0.00;;;14.30;69.00;;;;;;4204416;28;19927;-45
2021/05/08 02:29:57;;;;;;;0.03;0.03;;;14.30;69.00;;;;;;4207578;28;20056;-48
2021/05/08 02:32:18;;;;;;;0.00;0.00;;;14.30;69.00;;;;;;4208716;28;20085;-46
2021/05/08 02:34:39;;;;;;;0.25;0.25;;;14.40;69.10;;;;;;4209242;28;20048;-45
2021/05/08 02:37:00;;;;;;;0.10;0.10;;;14.30;69.10;;;;;;4201588;28;20051;-52
2021/05/08 02:39:22;;;;;;;0.00;0.00;;;14.30;70.00;;;;;;4190886;28;20056;-49
2021/05/08 02:41:43;;;;;;;0.00;0.00;;;14.30;69.20;;;;;;4190468;28;20082;-45
2021/05/08 02:44:04;;;;;;;;;;;14.30;69.20;;;;;;4203279;28;20490;-45
2021/05/08 02:46:27;;;;;;;0.00;0.00;;;14.30;69.40;;;;;;4191507;28;20416;-45
2021/05/08 02:48:48;;;;;;;0.10;0.10;;;14.20;69.20;;;;;;4190653;28;20051;-46
2021/05/08 02:51:11;;;;;;;0.00;0.00;;;14.20;69.20;;;;;;4190567;28;20051;-45
2021/05/08 02:53:33;;;;;;;0.10;0.10;;;14.20;69.20;;;;;;4192038;28;20147;-46
2021/05/08 02:55:55;;;;;;;0.00;0.00;;;14.20;69.30;;;;;;4202720;28;20052;-47
2021/05/08 02:58:20;;;;;;;0.00;0.00;;;14.30;69.30;;;;;;4207202;28;20589;-47
2021/05/08 03:00:44;;;;;;;0.00;0.00;;;14.20;69.30;;;;;;4190538;28;20040;-46
2021/05/08 03:03:08;;;;;;;0.00;0.00;;;14.20;69.20;;;;;;4206373;28;20058;-44
2021/05/08 03:05:32;;;;;;;0.00;0.00;;;14.20;69.30;;;;;;4199025;28;20044;-46
2021/05/08 03:08:00;;;;;;;0.00;0.00;;;14.20;69.30;;;;;;4190191;28;20056;-47
2021/05/08 03:10:21;;;;;;;0.10;0.10;;;14.20;69.30;;;;;;4191270;28;20049;-45
2021/05/08 03:12:42;;;;;;;0.00;0.00;;;14.20;69.40;;;;;;4191718;28;20495;-48
2021/05/08 03:15:05;;;;;;;0.35;0.35;;;14.20;69.40;;;;;;4197142;28;20036;-47
2021/05/08 03:17:28;;;;;;;0.00;0.00;;;14.20;69.40;;;;;;4192774;28;20048;-44
2021/05/08 03:19:53;;;;;;;0.00;0.00;;;14.10;69.40;;;;;;4190996;28;20491;-44
2021/05/08 03:22:15;;;;;;;0.32;0.32;;;14.10;69.40;;;;;;4189929;28;20044;-45
2021/05/08 03:24:36;;;;;;;0.00;0.00;;;14.10;69.40;;;;;;4180709;28;20491;-45
2021/05/08 03:26:57;;;;;;;0.15;0.15;;;14.10;69.40;;;;;;4206403;28;20052;-45
2021/05/08 03:29:18;;;;;;;0.00;0.00;;;14.10;69.40;;;;;;4208215;28;20520;-45
2021/05/08 03:31:39;;;;;;;2.83;1.02;;;14.10;69.50;;;;;;4200142;28;20437;-46
2021/05/08 03:34:00;;;;;;;0.00;0.00;;;14.10;69.60;;;;;;4190039;28;20076;-46
2021/05/08 03:36:22;;;;;;;0.00;0.00;;;14.10;69.50;;;;;;4188471;28;20102;-45
2021/05/08 03:38:43;;;;;;;0.00;0.00;;;14.10;69.60;;;;;;4191230;28;20125;-46
2021/05/08 03:41:05;;;;;;;0.00;0.00;;;14.00;69.50;;;;;;4192544;28;20051;-44
2021/05/08 03:43:26;;;;;;;0.00;0.00;;;14.10;69.60;;;;;;4207032;28;20047;-45
2021/05/08 03:45:49;;;;;;;0.05;0.05;;;14.00;69.50;;;;;;4204257;28;20480;-44
2021/05/08 03:48:10;;;;;;;0.00;0.00;;;14.00;69.60;;;;;;4191183;28;20043;-45
2021/05/08 03:50:31;;;;;;;0.00;0.00;;;14.00;69.50;;;;;;4191631;28;20048;-44
2021/05/08 03:52:53;;;;;;;0.00;0.00;;;14.00;69.60;;;;;;4174599;28;20071;-45
2021/05/08 03:55:14;;;;;;;0.00;0.00;;;14.00;69.50;;;;;;4174696;28;20067;-44
2021/05/08 03:57:35;;;;;;;0.00;0.00;;;14.00;69.50;;;;;;4174298;28;20055;-45
2021/05/08 03:59:57;;;;;;;0.00;0.00;;;14.00;69.60;;;;;;4183277;28;20044;-44
2021/05/08 04:02:19;;;;;;;0.00;0.00;;;14.00;69.60;;;;;;4203894;28;20079;-45
2021/05/08 04:04:40;;;;;;;0.00;0.00;;;14.00;69.60;;;;;;4191001;28;20052;-45
2021/05/08 04:07:00;;;;;;;1.25;1.25;;;14.00;69.50;;;;;;4190775;28;20105;-46
2021/05/08 04:09:22;;;;;;;0.00;0.00;;;14.00;69.60;;;;;;4190871;28;20726;-44
2021/05/08 04:11:44;;;;;;;0.10;0.10;;;13.90;69.70;;;;;;4174022;28;20055;-44
2021/05/08 04:14:06;;;;;;;0.00;0.00;;;13.90;69.90;;;;;;4157936;28;20076;-45
2021/05/08 04:16:27;;;;;;;0.00;0.00;;;14.00;69.80;;;;;;4165723;28;20057;-47
2021/05/08 04:18:48;;;;;;;0.00;0.00;;;13.90;69.60;;;;;;4174056;28;20076;-45
2021/05/08 04:21:08;;;;;;;0.08;0.08;;;13.90;69.60;;;;;;4174524;28;20052;-44
2021/05/08 04:23:29;;;;;;;0.15;0.15;;;13.90;69.60;;;;;;4186228;28;20185;-44
2021/05/08 04:25:51;;;;;;;0.00;0.00;;;13.90;69.50;;;;;;4175604;28;20041;-45
2021/05/08 04:28:12;;;;;;;0.00;0.00;;;13.90;69.50;;;;;;4174410;28;20057;-45
2021/05/08 04:30:33;;;;;;;0.00;0.00;;;14.00;69.40;;;;;;4185194;28;20490;-45
2021/05/08 04:33:10;;;;;;;0.00;0.00;;;14.00;69.30;;;;;;4207040;28;20055;-45
2021/05/08 04:35:31;;;;;;;0.60;0.38;;;14.00;69.20;;;;;;4207587;28;20755;-46
2021/05/08 04:37:52;;;;;;;0.00;0.00;;;14.00;69.20;;;;;;4207872;28;20055;-46
2021/05/08 04:40:13;;;;;;;0.00;0.00;;;14.00;70.00;;;;;;4201334;28;20048;-47
2021/05/08 04:42:38;;;;;;;0.00;0.00;;;14.00;69.10;;;;;;4177587;28;20045;-46
2021/05/08 04:44:59;;;;;;;0.00;0.00;;;14.00;69.10;;;;;;4194209;28;20076;-45
2021/05/08 04:47:21;;;;;;;0.00;0.00;;;14.00;69.10;;;;;;4193646;28;20419;-45
2021/05/08 04:49:42;;;;;;;0.00;0.00;;;14.00;69.00;;;;;;4194155;28;20403;-48
2021/05/08 04:52:04;;;;;;;0.20;0.20;;;14.10;68.90;;;;;;4194073;28;20066;-44
2021/05/08 04:54:27;;;;;;;;;;;14.00;68.70;;;;;;4177260;28;20499;-45
2021/05/08 04:56:48;;;;;;;0.00;0.00;;;14.10;68.70;;;;;;4198908;28;19923;-46
2021/05/08 04:59:09;;;;;;;0.00;0.00;;;14.10;68.50;;;;;;4210502;28;20040;-49
2021/05/08 05:01:31;;;;;;;0.10;0.10;;;14.10;68.50;;;;;;4201581;28;20048;-46
2021/05/08 05:03:52;;;;;;;;;;;14.10;68.30;;;;;;4194935;28;20135;-44
2021/05/08 05:06:13;;;;;;;0.00;0.00;;;14.20;68.30;;;;;;4196242;28;19971;-45
2021/05/08 05:08:34;;;;;;;0.00;0.00;;;14.20;68.20;;;;;;4193521;28;20119;-45
2021/05/08 05:10:55;;;;;;;0.00;0.00;;;14.20;68.20;;;;;;4210326;28;20135;-46
2021/05/08 05:13:17;;;;;;;0.00;0.00;;;14.20;68.30;;;;;;4210293;28;20138;-47
2021/05/08 05:15:38;;;;;;;;;;;14.20;68.30;;;;;;4209019;28;20056;-45
2021/05/08 05:17:59;;;;;;;;;;;14.20;68.40;;;;;;4210328;28;19931;-44
2021/05/08 05:20:21;;;;;;;0.10;0.10;;;14.20;68.60;;;;;;4210171;28;19924;-46
2021/05/08 05:22:42;;;;;;;0.00;0.00;;;14.10;68.80;;;;;;4198175;28;20560;-46
2021/05/08 05:25:04;;;;;;;0.00;0.00;;;14.10;69.80;;;;;;4193467;28;20047;-47
2021/05/08 05:27:25;;;;;;;0.00;0.00;;;14.10;70.00;;;;;;4210087;28;20159;-45
2021/05/08 05:29:47;;;;;;;1.45;1.35;;;14.20;69.90;;;;;;4209854;28;20482;-46
2021/05/08 05:32:10;;;;;;;0.40;0.40;;;14.20;69.80;;;;;;4205203;28;20490;-47
2021/05/08 05:34:31;;;;;;;0.00;0.00;;;14.10;69.80;;;;;;4176656;28;20140;-45
2021/05/08 05:36:52;;;;;;;0.00;0.00;;;14.10;69.90;;;;;;4199928;28;20043;-44
2021/05/08 05:39:13;;;;;;;0.00;0.00;;;14.10;69.90;;;;;;4208117;28;20055;-45
2021/05/08 05:41:34;;;;;;;0.00;0.00;;;14.10;69.90;;;;;;4190021;28;20060;-45
2021/05/08 05:43:56;;;;;;;0.00;0.00;;;14.10;69.90;;;;;;4193155;28;20059;-44
2021/05/08 05:46:17;;;;;;;;;;;14.10;70.00;;;;;;4184244;28;20656;-44
2021/05/08 05:48:38;;;;;;;0.40;0.40;;;14.00;70.20;;;;;;4176435;28;19925;-51
2021/05/08 05:50:59;;;;;;;0.60;0.43;;;14.00;70.30;;;;;;4176048;28;20156;-47
2021/05/08 05:53:20;;;;;;;0.00;0.00;;;14.00;70.40;;;;;;4176457;28;20107;-49
2021/05/08 05:55:41;;;;;;;0.45;0.45;;;14.00;70.50;;;;;;4176847;28;20057;-46
2021/05/08 05:58:03;;;;;;;0.00;0.00;;;14.00;70.50;;;;;;4176227;28;20059;-49
2021/05/08 06:00:24;;;;;;;0.00;0.00;;;14.00;70.60;;;;;;4178152;28;20057;-49
2021/05/08 06:02:45;;;;;;;0.00;0.00;;;14.00;70.60;;;;;;4192972;28;20514;-45
2021/05/08 06:05:08;;;;;;;0.00;0.00;;;14.00;70.60;;;;;;4194248;28;20040;-44
2021/05/08 06:07:29;;;;;;;0.15;0.15;;;14.00;70.70;;;;;;4203904;28;20471;-49
2021/05/08 06:09:50;;;;;;;0.00;0.00;;;14.00;70.80;;;;;;4192643;28;20071;-46
2021/05/08 06:12:11;;;;;;;0.00;0.00;;;14.00;70.80;;;;;;4204248;28;20051;-43
2021/05/08 06:14:32;;;;;;;13.90;0.93;;;14.00;70.70;;;;;;4209198;28;20047;-44
2021/05/08 06:16:55;;;;;;;0.00;0.00;;;14.00;80.00;;;;;;4193960;28;20071;-43
2021/05/08 06:19:17;;;;;;;0.55;0.55;;;14.10;81.60;;;;;;4192250;28;20443;-45
2021/05/08 06:21:39;;;;;;;0.82;0.82;;;14.10;80.70;;;;;;4192366;28;20052;-45
2021/05/08 06:24:00;;;;;;;0.00;0.00;;;14.20;78.00;;;;;;4192528;28;20549;-46
2021/05/08 06:26:21;;;;;;;0.00;0.00;;;14.20;76.60;;;;;;4206190;28;20048;-44
2021/05/08 06:28:42;;;;;;;0.00;0.00;;;14.20;75.90;;;;;;4189076;28;20735;-44
2021/05/08 06:31:03;;;;;;;0.00;0.00;;;14.20;75.30;;;;;;4201449;28;20169;-45
2021/05/08 06:33:24;;;;;;;0.00;0.00;;;14.30;74.80;;;;;;4208908;28;20056;-44
2021/05/08 06:35:45;;;;;;;0.00;0.00;;;14.30;74.30;;;;;;4208677;28;20044;-45
2021/05/08 06:38:07;;;;;;;1.85;1.75;;;14.30;73.80;;;;;;4202655;28;20053;-46
2021/05/08 06:40:28;;;;;;;;;;;14.30;73.30;;;;;;4192905;28;20048;-45
2021/05/08 06:42:49;;;;;;;0.85;0.85;;;14.40;72.90;;;;;;4199063;28;19931;-45
2021/05/08 06:45:11;;;;;;;0.10;0.10;;;14.40;72.50;;;;;;4207011;28;20051;-45
2021/05/08 06:47:32;;;;;;;0.08;0.08;;;14.40;72.10;;;;;;4192307;28;20056;-45
2021/05/08 06:49:53;;;;;;;0.00;0.00;;;14.50;71.80;;;;;;4189971;28;20045;-45
2021/05/08 06:52:14;;;;;;;0.15;0.15;;;14.50;71.40;;;;;;4175449;28;20487;-46
2021/05/08 06:54:36;;;;;;;2.20;1.45;;;14.50;70.70;;;;;;4192247;28;20052;-46
2021/05/08 06:56:57;;;;;;;0.28;0.28;;;14.50;71.30;;;;;;4191330;28;20063;-47
2021/05/08 06:59:18;;;;;;;0.10;0.10;;;14.60;70.20;;;;;;4175389;28;20119;-46
2021/05/08 07:01:40;;;;;;;0.00;0.00;;;14.60;70.00;;;;;;4191474;28;20552;-45
2021/05/08 07:04:01;;;;;;;0.17;0.17;;;14.70;69.70;;;;;;4191883;28;20353;-46
2021/05/08 07:06:24;;;;;;;0.00;0.00;;;14.80;69.30;;;;;;4197325;28;20410;-46
2021/05/08 07:08:45;;;;;;;0.30;0.30;;;14.80;68.60;;;;;;4205410;28;20051;-48
2021/05/08 07:11:07;;;;;;;0.10;0.10;;;14.90;68.20;;;;;;4191583;28;20130;-46
2021/05/08 07:13:28;;;;;;;0.00;0.00;;;14.90;67.90;;;;;;4194182;28;20040;-49
2021/05/08 07:15:49;;;;;;;0.10;0.10;;;14.90;67.60;;;;;;4203212;28;20130;-53
2021/05/08 07:18:10;;;;;;;1.95;1.85;;;15.00;67.40;;;;;;4191541;28;20055;-51
2021/05/08 07:20:32;;;;;;;0.05;0.05;;;15.00;67.20;;;;;;4191544;28;20498;-45
2021/05/08 07:22:53;;;;;;;0.30;0.30;;;15.00;66.90;;;;;;4185204;28;20148;-46
2021/05/08 07:25:14;;;;;;;;;;;15.00;66.60;;;;;;4178442;28;20554;-47
2021/05/08 07:27:36;;;;;;;0.05;0.05;;;15.00;66.20;;;;;;4190206;28;19920;-45
2021/05/08 07:29:57;;;;;;;0.13;0.13;;;15.00;65.40;;;;;;4181410;28;20048;-46
2021/05/08 07:32:18;;;;;;;0.43;0.43;;;15.10;64.70;;;;;;4188260;28;20114;-48
2021/05/08 07:34:39;;;;;;;0.10;0.10;;;15.10;64.20;;;;;;4190928;28;20487;-45
2021/05/08 07:37:00;;;;;;;0.13;0.13;;;15.10;63.90;;;;;;4191461;28;20055;-45
2021/05/08 07:39:21;;;;;;;1.17;0.98;;;15.10;63.70;;;;;;4191371;28;20158;-45
2021/05/08 07:41:42;;;;;;;0.10;0.10;;;15.10;63.60;;;;;;4195279;28;20502;-46
2021/05/08 07:44:04;;;;;;;18.73;0.75;;;15.10;63.60;;;;;;4190834;28;20048;-46
2021/05/08 07:46:25;;;;;;;0.30;0.30;;;15.00;63.40;;;;;;4205557;28;20040;-46
2021/05/08 07:48:46;;;;;;;0.00;0.00;;;15.00;63.50;;;;;;4207903;28;20044;-46
2021/05/08 07:51:08;;;;;;;0.43;0.43;;;15.00;63.40;;;;;;4207448;28;20062;-47
2021/05/08 07:53:30;;;;;;;0.50;0.50;;;15.00;63.20;;;;;;4199093;28;20410;-45
2021/05/08 07:55:51;;;;;;;0.52;0.52;;;15.10;63.30;;;;;;4174500;28;20053;-46
2021/05/08 07:58:12;;;;;;;0.43;0.43;;;15.10;63.20;;;;;;4192267;28;20052;-45
2021/05/08 08:00:35;;;;;;;0.10;0.10;;;15.10;63.20;;;;;;4196910;28;20054;-45
2021/05/08 08:02:57;;;;;;;1.90;0.73;;;15.10;63.20;;;;;;4204453;28;20567;-47
2021/05/08 08:05:19;;;;;;;0.32;0.32;;;15.10;63.10;;;;;;4189039;28;20127;-46
2021/05/08 08:07:40;;;;;;;0.20;0.20;;;15.10;63.10;;;;;;4207999;28;20067;-46
2021/05/08 08:10:01;;;;;;;0.90;0.75;;;15.10;63.20;;;;;;4196767;28;20044;-46
2021/05/08 08:12:22;;;;;;;0.00;0.00;;;15.10;63.20;;;;;;4201317;28;20055;-45
2021/05/08 08:14:43;;;;;;;;;;;15.10;63.30;;;;;;4206886;28;20695;-46
2021/05/08 08:17:05;;;;;;;0.00;0.00;;;15.10;63.40;;;;;;4191020;28;20298;-46
2021/05/08 08:19:27;;;;;;;0.20;0.20;;;15.10;63.40;;;;;;4190696;28;20490;-46
2021/05/08 08:21:48;;;;;;;0.00;0.00;;;15.10;63.30;;;;;;4202504;28;20487;-45
2021/05/08 08:24:10;;;;;;;0.00;0.00;;;15.10;63.30;;;;;;4207391;28;20450;-45
2021/05/08 08:26:31;;;;;;;0.00;0.00;;;15.10;63.20;;;;;;4197098;28;20036;-47
2021/05/08 08:28:52;;;;;;;0.10;0.10;;;15.10;63.20;;;;;;4174467;28;20048;-48
2021/05/08 08:31:13;;;;;;;0.00;0.00;;;15.10;63.30;;;;;;4174323;28;20052;-49
2021/05/08 08:33:35;;;;;;;0.10;0.10;;;15.10;63.30;;;;;;4174416;28;20056;-45
2021/05/08 08:35:56;;;;;;;0.00;0.00;;;15.20;63.20;;;;;;4174302;28;20067;-46
2021/05/08 08:38:17;;;;;;;0.00;0.00;;;15.20;63.10;;;;;;4172834;28;20069;-45
2021/05/08 08:40:38;;;;;;;0.00;0.00;;;15.20;62.90;;;;;;4186661;28;20582;-47
2021/05/08 08:42:59;;;;;;;0.20;0.20;;;15.20;62.60;;;;;;4189487;28;20052;-46
2021/05/08 08:45:20;;;;;;;0.30;0.30;;;15.20;62.40;;;;;;4190853;28;20507;-49
2021/05/08 08:47:43;;;;;;;0.30;0.30;;;15.20;62.20;;;;;;4190635;28;20081;-44
2021/05/08 08:50:07;;;;;;;0.00;0.00;;;15.20;62.00;;;;;;4190419;28;20078;-46
2021/05/08 08:52:29;;;;;;;0.00;0.00;;;15.20;62.00;;;;;;4190829;28;20049;-46
2021/05/08 08:54:51;;;;;;;0.20;0.20;;;15.30;61.80;;;;;;4190691;28;20491;-46
2021/05/08 08:57:13;;;;;;;4.95;2.28;;;15.30;61.50;;;;;;4190634;28;20491;-44
2021/05/08 08:59:33;;;;;;;0.40;0.40;;;15.30;61.10;;;;;;4173969;28;20045;-43
2021/05/08 09:01:55;;;;;;;0.00;0.00;;;15.30;61.70;;;;;;4174097;28;20134;-44
2021/05/08 09:04:17;;;;;;;1.02;1.02;;;15.30;60.70;;;;;;4173804;28;20600;-45
2021/05/08 09:06:40;;;;;;;0.10;0.10;;;15.40;60.60;;;;;;4174207;28;20045;-44
2021/05/08 09:09:01;;;;;;;0.10;0.10;;;15.40;60.30;;;;;;4177091;28;22554;-44
2021/05/08 09:11:24;;;;;;;0.10;0.10;;;15.40;60.10;;;;;;4201159;28;20045;-48
2021/05/08 09:13:45;;;;;;;0.75;0.75;;;15.40;60.00;;;;;;4174070;28;20068;-47
2021/05/08 09:16:08;;;;;;;0.47;0.47;;;15.40;59.80;;;;;;4174131;28;20476;-46
2021/05/08 09:18:34;;;;;;;0.50;0.30;;;15.40;59.50;;;;;;4193618;28;20451;-49
2021/05/08 09:20:54;;;;;;;0.50;0.50;;;15.40;59.40;;;;;;4190119;28;20051;-54
2021/05/08 09:23:20;;;;;;;0.10;0.10;;;15.40;59.50;;;;;;4199033;28;20072;-48
2021/05/08 09:25:59;;;;;;;0.15;0.15;;;15.40;59.70;;;;;;4202945;28;20135;-43
2021/05/08 09:28:20;;;;;;;0.40;0.40;;;15.50;59.60;;;;;;4192933;28;20555;-46
2021/05/08 09:30:44;;;;;;;0.00;0.00;;;15.50;59.50;;;;;;4193121;28;20047;-48
2021/05/08 09:33:06;;;;;;;0.10;0.10;;;15.60;60.00;;;;;;4183109;28;20049;-44
2021/05/08 09:35:27;;;;;;;;;;;15.60;58.80;;;;;;4177357;28;20053;-46
2021/05/08 09:37:50;;;;;;;0.35;0.35;;;15.60;58.60;;;;;;4191910;28;19931;-44
2021/05/08 09:40:31;;;;;;;0.00;0.00;;;15.70;59.00;;;;;;4193240;28;20135;-43
2021/05/08 09:42:54;;;;;;;0.00;0.00;;;15.70;59.20;;;;;;4198249;28;20041;-45
2021/05/08 09:45:16;;;;;;;0.15;0.15;;;15.70;59.20;;;;;;4207740;28;20040;-49
2021/05/08 09:47:37;;;;;;;0.15;0.15;;;15.70;59.10;;;;;;4196706;28;20131;-44
2021/05/08 09:49:58;;;;;;;4.18;1.88;;;15.70;58.50;;;;;;4193057;28;20055;-43
2021/05/08 09:52:19;;;;;;;0.10;0.10;;;15.70;59.20;;;;;;4196763;28;20123;-45
2021/05/08 09:54:40;;;;;;;0.10;0.10;;;15.80;58.70;;;;;;4193081;28;20055;-43
2021/05/08 09:57:02;;;;;;;2.75;2.10;;;15.80;58.90;;;;;;4206430;28;20134;-45
2021/05/08 09:59:25;;;;;;;0.00;0.00;;;15.80;59.00;;;;;;4209683;28;20097;-43
2021/05/08 10:01:46;;;;;;;0.15;0.15;;;15.80;58.70;;;;;;4205758;28;20632;-44
2021/05/08 10:04:25;;;;;;;;;;;15.80;57.50;;;;;;4191654;28;20410;-44
2021/05/08 10:07:05;;;;;;;0.20;0.20;;;15.80;57.50;;;;;;4209535;28;19920;-43
2021/05/08 10:09:26;;;;;;;0.00;0.00;;;15.80;57.90;;;;;;4209177;28;20043;-44
2021/05/08 10:11:47;;;;;;;0.05;0.05;;;15.90;58.10;;;;;;4207507;28;20495;-44
2021/05/08 10:14:09;;;;;;;0.15;0.15;;;15.90;58.10;;;;;;4176293;28;20045;-46
2021/05/08 10:16:30;;;;;;;1.77;0.57;;;15.90;58.20;;;;;;4176062;28;20126;-44
2021/05/08 10:18:51;;;;;;;0.43;0.43;;;15.90;57.60;;;;;;4200859;28;20048;-45
2021/05/08 10:21:12;;;;;;;0.00;0.00;;;15.90;57.10;;;;;;4204055;28;20498;-46
2021/05/08 10:23:34;;;;;;;4.97;2.22;;;15.90;56.90;;;;;;4192737;28;20040;-44
2021/05/08 10:25:56;;;;;;;2.70;2.60;;;15.90;56.80;;;;;;4176045;28;20045;-45
2021/05/08 10:28:17;;;;;;;0.95;0.95;;;15.90;56.60;;;;;;4175790;28;20064;-43
2021/05/08 10:30:40;;;;;;;;;;;15.90;56.60;;;;;;4179990;28;20488;-45
2021/05/08 10:33:07;;;;;;;2.10;1.95;;;15.90;56.90;;;;;;4190758;28;19932;-46
2021/05/08 10:35:38;;;;;;;3.33;3.00;;;15.90;57.10;;;;;;4192147;28;20152;-46
2021/05/08 10:38:18;;;;;;;0.98;0.98;;;15.90;57.20;;;;;;4192653;28;20118;-44
2021/05/08 10:41:11;;;;;;;4.57;2.10;;;15.90;57.10;;;;;;4205438;28;20051;-44
2021/05/08 10:43:44;;;;;;;2.47;1.65;;;15.90;57.10;;;;;;4176363;28;20044;-43
2021/05/08 10:46:06;;;;;;;5.55;2.30;;;15.90;56.90;;;;;;4191831;28;20097;-43
2021/05/08 10:48:27;;;;;;;1.90;1.80;;;15.90;57.00;;;;;;4192196;28;20048;-46
2021/05/08 10:50:55;;;;;;;3.58;3.38;;;15.90;57.00;;;;;;4175675;28;20076;-46
2021/05/08 10:53:17;;;;;;;5.03;4.63;;;15.90;57.10;;;;;;4175643;28;20500;-44
2021/05/08 10:55:49;;;;;;;0.45;0.45;;;15.90;56.80;;;;;;4175692;28;20132;-44
2021/05/08 10:58:31;;;;;;;4.68;4.25;;;15.90;57.50;;;;;;4175308;28;20128;-44
2021/05/08 11:00:53;;;;;;;3.90;3.60;;;15.90;56.80;;;;;;4175287;28;20056;-46
2021/05/08 11:03:16;;;;;;;2.22;2.13;;;16.00;56.70;;;;;;4191333;28;20642;-47
2021/05/08 11:05:49;;;;;;;8.20;4.97;;;15.90;56.60;;;;;;4203955;28;20052;-46
2021/05/08 11:08:44;;;;;;;1.25;1.25;;;16.00;56.60;;;;;;4208454;28;20774;-50
2021/05/08 11:11:06;;;;;;;1.42;1.42;;;16.00;56.70;;;;;;4208536;28;20078;-49
2021/05/08 11:13:28;;;;;;;1.08;1.08;;;16.00;56.50;;;;;;4208869;28;20118;-49
2021/05/08 11:16:09;;;;;;;2.20;1.90;;;16.00;56.50;;;;;;4195597;28;20083;-45
2021/05/08 11:18:36;;;;;;;1.50;1.50;;;16.00;56.60;;;;;;4191329;28;20189;-48
2021/05/08 11:20:57;;;;;;;0.85;0.85;;;16.10;56.60;;;;;;4191508;28;20386;-49
2021/05/08 11:23:20;;;;;;;0.80;0.80;;;16.00;56.70;;;;;;4191605;28;20423;-48
2021/05/08 11:25:41;;;;;;;2.53;2.38;;;16.00;56.70;;;;;;4201876;28;20101;-45
2021/05/08 11:28:08;;;;;;;0.30;0.30;;;16.00;56.70;;;;;;4208621;28;20126;-49
2021/05/08 11:30:29;;;;;;;3.05;2.58;;;16.00;56.40;;;;;;4192797;28;20053;-49
2021/05/08 11:32:50;;;;;;;0.95;0.95;;;16.00;56.60;;;;;;4203775;28;20565;-46
2021/05/08 11:35:24;;;;;;;0.95;0.95;;;16.00;56.70;;;;;;4208244;28;20411;-47
2021/05/08 11:37:45;;;;;;;0.60;0.60;;;16.00;56.30;;;;;;4208012;28;20062;-45
2021/05/08 11:40:07;;;;;;;;;;;16.10;56.20;;;;;;4208780;28;20557;-45
2021/05/08 11:42:28;;;;;;;0.22;0.22;;;16.00;56.30;;;;;;4207692;28;19924;-45
2021/05/08 11:44:54;;;;;;;2.03;1.98;;;16.10;55.70;;;;;;4208437;28;20413;-48
2021/05/08 11:47:28;;;;;;;1.65;1.65;;;16.10;55.20;;;;;;4207695;28;20048;-45
2021/05/08 11:49:56;;;;;;;1.75;1.65;;;16.10;55.40;;;;;;4207918;28;20075;-46
2021/05/08 11:52:35;;;;;;;2.95;1.45;;;16.10;55.70;;;;;;4207203;28;20117;-49
2021/05/08 11:54:57;;;;;;;1.00;1.00;;;16.10;55.80;;;;;;4207823;28;20501;-44
2021/05/08 11:57:20;;;;;;;1.17;1.17;;;16.10;55.90;;;;;;4208030;28;20127;-45
2021/05/08 11:59:42;;;;;;;17.20;2.15;;;16.20;55.80;;;;;;4208089;28;20047;-47
2021/05/08 12:02:13;;;;;;;;;;;16.20;55.70;;;;;;4198934;28;20044;-47
2021/05/08 12:04:44;;;;;;;1.45;1.45;;;16.10;55.10;;;;;;4191481;28;20011;-46
2021/05/08 12:07:06;;;;;;;0.20;0.20;;;16.10;55.00;;;;;;4191062;28;20056;-45
2021/05/08 12:09:28;;;;;;;0.10;0.10;;;16.10;55.20;;;;;;4191389;28;20544;-45
2021/05/08 12:11:49;;;;;;;0.57;0.57;;;16.10;54.70;;;;;;4200616;28;20072;-48
2021/05/08 12:14:17;;;;;;;0.10;0.10;;;16.10;54.40;;;;;;4207904;28;20044;-45
2021/05/08 12:16:39;;;;;;;1.75;1.35;;;16.00;54.10;;;;;;4194023;28;21153;-47
2021/05/08 12:19:03;;;;;;;0.10;0.10;;;16.00;54.70;;;;;;4191011;28;20051;-47
2021/05/08 12:21:24;;;;;;;0.68;0.68;;;16.00;53.90;;;;;;4194576;28;20483;-49
2021/05/08 12:23:47;;;;;;;0.60;0.60;;;15.90;53.80;;;;;;4185513;28;20040;-55
2021/05/08 12:26:11;;;;;;;0.10;0.10;;;15.90;53.70;;;;;;4189600;28;20510;-55
2021/05/08 12:28:32;;;;;;;3.20;0.75;;;15.90;53.60;;;;;;4188844;28;20056;-46